sim
Sign-in with your pilot id or email,
or register
Callsign
Passwort

Schedule Details

Flight Number: EWG1786 (2)
Departure: Munich Airport (EDDM) at 16:25
Arrival: Palma de Mallorca Airport (LEPA) at 18:35
Route: Eurowings Passenger Schedule. Enter filed route here before submitting Pirep.

Weather Information
Getting current METAR information for EDDM 260720Z 27012KT 9999 FEW012 BKN017 08/05 Q0999 NOSIG
Getting current METAR information for LEPA 260730Z 18002KT 9999 FEW025 SCT055 17/11 Q1015 NOSIG

Schedule Frequency

Route Map